Time;durP1;ratioP1;P1;durP2;ratioP2;P2;SDS_P1;SDS_P2;PMS_P1;PMS_P2;Temp;Humidity;BMP_temperature;BMP_pressure;BME280_temperature;BME280_humidity;BME280_pressure;Samples;Min_cycle;Max_cycle;Signal;HPM_P1;HPM_P2
2022/11/30 00:00:27;;;;;;;67.85;24.73;;;4.80;99.90;;;;;;5031376;28;20057;-80
2022/11/30 00:03:14;;;;;;;61.58;25.45;;;4.70;99.90;;;;;;5019588;28;20049;-81
2022/11/30 00:06:05;;;;;;;54.58;21.45;;;4.80;99.90;;;;;;5014531;28;20041;-81
2022/11/30 00:08:55;;;;;;;48.53;19.80;;;4.80;99.90;;;;;;5031393;28;20063;-81
2022/11/30 00:11:41;;;;;;;38.67;18.35;;;4.70;99.90;;;;;;5012859;28;20064;-81
2022/11/30 00:14:27;;;;;;;38.95;17.55;;;4.60;99.90;;;;;;5014280;28;20053;-81
2022/11/30 00:17:14;;;;;;;40.42;19.13;;;4.60;99.90;;;;;;5048537;28;20053;-81
2022/11/30 00:20:00;;;;;;;80.43;26.52;;;4.60;99.90;;;;;;5050478;28;20107;-81
2022/11/30 00:22:47;;;;;;;51.28;22.35;;;4.60;99.90;;;;;;5033686;28;20053;-81
2022/11/30 00:25:33;;;;;;;37.55;18.65;;;4.70;99.90;;;;;;5050319;28;20047;-81
2022/11/30 00:28:19;;;;;;;59.85;24.58;;;4.70;99.90;;;;;;5050148;28;20413;-81
2022/11/30 00:31:09;;;;;;;61.30;24.20;;;4.80;99.90;;;;;;5050735;28;20049;-80
2022/11/30 00:33:56;;;;;;;36.20;19.35;;;4.80;99.90;;;;;;5053423;28;20049;-80
2022/11/30 00:36:42;;;;;;;52.22;23.15;;;4.90;99.90;;;;;;5033305;28;20401;-81
2022/11/30 00:39:29;;;;;;;42.10;19.73;;;4.90;99.90;;;;;;5033348;28;20091;-81
2022/11/30 00:42:15;;;;;;;71.25;27.58;;;5.00;99.90;;;;;;5033839;28;20053;-81
2022/11/30 00:45:01;;;;;;;45.75;23.13;;;5.00;99.90;;;;;;5051572;28;20091;-80
2022/11/30 00:47:47;;;;;;;62.67;25.40;;;5.00;99.90;;;;;;5055618;28;20386;-80
2022/11/30 00:50:33;;;;;;;56.33;25.98;;;5.10;99.90;;;;;;5032309;28;20045;-80
2022/11/30 00:53:20;;;;;;;55.65;26.00;;;5.20;99.90;;;;;;5049997;28;20056;-80
2022/11/30 00:56:08;;;;;;;50.75;26.50;;;5.20;99.90;;;;;;5050418;28;20064;-80
2022/11/30 00:58:54;;;;;;;57.08;26.15;;;5.20;99.90;;;;;;5032671;28;20110;-81
2022/11/30 01:01:40;;;;;;;63.10;26.55;;;5.30;99.90;;;;;;5034184;28;20057;-81
2022/11/30 01:04:26;;;;;;;56.67;27.33;;;5.30;99.90;;;;;;5051877;28;20068;-80
2022/11/30 01:07:13;;;;;;;55.50;25.23;;;5.40;99.90;;;;;;5051215;28;20053;-80
2022/11/30 01:09:59;;;;;;;72.20;30.85;;;5.40;99.90;;;;;;5050497;28;20051;-80
2022/11/30 01:12:45;;;;;;;39.90;21.35;;;5.40;99.90;;;;;;5051622;28;20052;-81
2022/11/30 01:15:39;;;;;;;41.35;20.75;;;5.40;99.90;;;;;;5035113;28;20060;-80
2022/11/30 01:18:25;;;;;;;53.55;23.15;;;5.50;99.90;;;;;;5035273;28;20143;-80
2022/11/30 01:21:15;;;;;;;42.88;20.10;;;5.50;99.90;;;;;;5031864;28;20049;-80
2022/11/30 01:24:01;;;;;;;36.28;19.63;;;5.50;99.90;;;;;;5050499;28;20156;-80
2022/11/30 01:26:47;;;;;;;36.17;20.08;;;5.50;99.90;;;;;;5031643;28;20045;-80
2022/11/30 01:29:33;;;;;;;40.85;21.65;;;5.50;99.90;;;;;;5050053;28;20084;-80
2022/11/30 01:32:20;;;;;;;54.72;25.25;;;5.50;99.90;;;;;;5033996;28;20045;-80
2022/11/30 01:35:07;;;;;;;68.03;25.98;;;5.50;99.90;;;;;;5034202;28;20151;-80
2022/11/30 01:37:54;;;;;;;45.67;22.38;;;5.50;99.90;;;;;;5052007;28;20056;-80
2022/11/30 01:40:47;;;;;;;47.35;22.85;;;5.60;99.90;;;;;;5053656;28;20497;-80
2022/11/30 01:43:46;;;;;;;71.47;29.17;;;5.60;99.90;;;;;;5054791;28;20519;-80
2022/11/30 01:46:39;;;;;;;49.88;26.27;;;5.60;99.90;;;;;;5037563;28;20110;-81
2022/11/30 01:49:32;;;;;;;60.17;24.95;;;5.60;99.90;;;;;;5054507;28;20214;-80
2022/11/30 01:52:33;;;;;;;45.05;23.50;;;5.60;99.90;;;;;;5036146;28;20501;-80
2022/11/30 01:55:33;;;;;;;50.90;25.05;;;5.60;99.90;;;;;;5053586;28;20064;-80
2022/11/30 01:58:26;;;;;;;72.22;27.48;;;5.70;99.90;;;;;;5041355;28;20072;-80
2022/11/30 02:01:12;;;;;;;67.57;27.50;;;5.70;99.90;;;;;;5037803;28;20056;-80
2022/11/30 02:04:04;;;;;;;54.95;24.20;;;5.70;99.90;;;;;;5023622;28;20045;-80
2022/11/30 02:06:51;;;;;;;73.85;29.55;;;5.70;99.90;;;;;;5035821;28;20045;-80
2022/11/30 02:09:44;;;;;;;47.10;24.70;;;5.70;99.90;;;;;;5054019;28;20107;-80
2022/11/30 02:13:01;;;;;;;60.47;26.77;;;5.60;99.90;;;;;;5054100;28;20110;-80
2022/11/30 02:16:06;;;;;;;88.47;31.58;;;5.60;99.90;;;;;;5023852;28;20056;-80
2022/11/30 02:19:21;;;;;;;89.95;32.58;;;5.60;99.90;;;;;;5054147;28;20041;-80
2022/11/30 02:22:15;;;;;;;58.92;29.35;;;5.60;99.90;;;;;;5053122;28;20056;-80
2022/11/30 02:25:33;;;;;;;69.97;30.90;;;5.60;99.90;;;;;;5037116;28;20057;-80
2022/11/30 02:28:51;;;;;;;57.42;27.92;;;5.70;99.90;;;;;;5040251;28;20065;-81
2022/11/30 02:32:20;;;;;;;56.13;26.23;;;5.60;99.90;;;;;;5053473;28;20520;-80
2022/11/30 02:35:08;;;;;;;67.28;30.02;;;5.50;99.90;;;;;;4957006;28;20061;-80
2022/11/30 02:37:56;;;;;;;69.05;30.10;;;5.40;99.90;;;;;;4972445;28;20129;-80
2022/11/30 02:40:42;;;;;;;50.65;24.70;;;5.40;99.90;;;;;;5029842;28;20045;-79
2022/11/30 02:43:31;;;;;;;71.80;29.08;;;5.30;99.90;;;;;;5052964;28;20215;-81
2022/11/30 02:46:40;;;;;;;60.08;28.95;;;5.30;99.90;;;;;;5053907;28;20068;-81
2022/11/30 02:49:39;;;;;;;84.05;32.50;;;5.20;99.90;;;;;;5054027;28;20084;-81
2022/11/30 02:52:27;;;;;;;88.53;37.17;;;5.20;99.90;;;;;;5053673;28;20040;-80
2022/11/30 02:55:17;;;;;;;88.35;35.13;;;5.20;99.90;;;;;;5038062;28;20394;-80
2022/11/30 02:58:03;;;;;;;53.10;25.60;;;5.20;99.90;;;;;;5053320;28;20055;-80
2022/11/30 03:00:49;;;;;;;54.88;25.88;;;5.20;99.90;;;;;;5038488;28;20132;-81
2022/11/30 03:03:35;;;;;;;51.03;23.88;;;5.20;99.90;;;;;;5054616;28;20049;-79
2022/11/30 03:06:22;;;;;;;73.25;30.25;;;5.20;99.90;;;;;;5035097;28;20049;-80
2022/11/30 03:09:08;;;;;;;79.63;32.75;;;5.30;99.90;;;;;;5055161;28;20049;-80
2022/11/30 03:11:54;;;;;;;56.28;27.17;;;5.30;99.90;;;;;;5038740;28;20049;-80
2022/11/30 03:14:40;;;;;;;69.70;30.73;;;5.30;99.90;;;;;;5051732;28;20045;-80
2022/11/30 03:17:27;;;;;;;54.63;25.88;;;5.30;99.90;;;;;;5052712;28;20152;-80
2022/11/30 03:20:13;;;;;;;69.78;29.25;;;5.40;99.90;;;;;;5053182;28;20055;-80
2022/11/30 03:23:01;;;;;;;70.00;31.13;;;5.40;99.90;;;;;;5035933;28;20083;-79
2022/11/30 03:25:47;;;;;;;59.00;26.33;;;5.40;99.90;;;;;;5052566;28;20092;-80
2022/11/30 03:28:35;;;;;;;44.47;22.05;;;5.40;99.90;;;;;;5052601;28;20045;-80
2022/11/30 03:31:21;;;;;;;59.65;26.88;;;5.40;99.90;;;;;;5033767;28;20092;-80
2022/11/30 03:34:07;;;;;;;45.53;23.50;;;5.50;99.90;;;;;;5034840;28;20110;-80
2022/11/30 03:36:54;;;;;;;44.90;23.40;;;5.50;99.90;;;;;;5020870;28;20135;-80
2022/11/30 03:39:40;;;;;;;44.28;22.52;;;5.50;99.90;;;;;;5034083;28;20053;-81
2022/11/30 03:42:26;;;;;;;67.90;28.00;;;5.50;99.90;;;;;;5051578;28;20176;-80
2022/11/30 03:45:15;;;;;;;51.25;23.60;;;5.50;99.90;;;;;;5051618;28;20794;-80
2022/11/30 03:48:02;;;;;;;58.85;27.20;;;5.60;99.90;;;;;;5050859;28;20049;-80
2022/11/30 03:50:49;;;;;;;71.60;29.05;;;5.60;99.90;;;;;;5051882;28;20049;-81
2022/11/30 03:53:35;;;;;;;55.25;25.58;;;5.60;99.90;;;;;;5035618;28;20143;-81
2022/11/30 03:56:21;;;;;;;65.82;30.42;;;5.60;99.90;;;;;;5033167;28;20064;-80
2022/11/30 03:59:07;;;;;;;51.33;25.85;;;5.60;99.90;;;;;;5050613;28;20053;-81
2022/11/30 04:01:54;;;;;;;83.60;33.72;;;5.60;99.90;;;;;;5034107;28;20151;-80
2022/11/30 04:04:40;;;;;;;61.58;26.73;;;5.60;99.90;;;;;;5052202;28;20044;-81
2022/11/30 04:07:26;;;;;;;66.88;28.23;;;5.70;99.90;;;;;;5051574;28;20138;-81
2022/11/30 04:10:12;;;;;;;68.70;30.38;;;5.70;99.90;;;;;;5022104;28;20056;-81
2022/11/30 04:12:58;;;;;;;59.35;28.77;;;5.70;99.90;;;;;;5034100;28;20045;-81
2022/11/30 04:15:48;;;;;;;64.20;28.98;;;5.70;99.90;;;;;;5052644;28;20051;-81
2022/11/30 04:18:35;;;;;;;61.78;29.50;;;5.70;99.90;;;;;;5032367;28;20537;-81
2022/11/30 04:21:22;;;;;;;76.40;33.65;;;5.80;99.90;;;;;;5051131;28;20052;-80
2022/11/30 04:24:08;;;;;;;70.20;33.03;;;5.80;99.90;;;;;;5034823;28;20063;-80
2022/11/30 04:26:54;;;;;;;63.75;30.15;;;5.80;99.90;;;;;;5051754;28;20509;-81
2022/11/30 04:29:40;;;;;;;87.68;35.78;;;5.80;99.90;;;;;;5050449;28;20086;-81
2022/11/30 04:32:26;;;;;;;92.30;35.63;;;5.80;99.90;;;;;;5019756;28;20063;-80
2022/11/30 04:35:12;;;;;;;71.95;32.88;;;5.90;99.90;;;;;;5050770;28;20049;-80
2022/11/30 04:38:00;;;;;;;70.65;31.95;;;5.90;99.90;;;;;;5051826;28;20045;-80
2022/11/30 04:40:46;;;;;;;89.47;36.92;;;5.90;99.90;;;;;;5050249;28;20556;-81
2022/11/30 04:43:32;;;;;;;79.95;35.97;;;5.90;99.90;;;;;;5051240;28;20401;-80
2022/11/30 04:46:18;;;;;;;82.53;37.20;;;5.90;99.90;;;;;;5050130;28;20049;-80
2022/11/30 04:49:04;;;;;;;57.55;28.40;;;5.80;99.90;;;;;;5051352;28;20049;-80
2022/11/30 04:51:53;;;;;;;74.90;34.10;;;5.80;99.90;;;;;;5054835;28;20208;-81
2022/11/30 04:54:39;;;;;;;62.95;31.25;;;5.70;99.90;;;;;;5050642;28;20045;-81
2022/11/30 04:57:25;;;;;;;76.38;34.40;;;5.70;99.90;;;;;;5033513;28;20057;-80
2022/11/30 05:00:17;;;;;;;58.85;27.90;;;5.70;99.90;;;;;;5032857;28;20132;-80
2022/11/30 05:03:03;;;;;;;55.13;28.77;;;5.60;99.90;;;;;;5049833;28;20044;-80
2022/11/30 05:05:49;;;;;;;66.82;32.30;;;5.60;99.90;;;;;;5055429;28;20106;-80
2022/11/30 05:08:35;;;;;;;63.80;30.58;;;5.60;99.90;;;;;;5050086;28;20045;-80
2022/11/30 05:11:21;;;;;;;73.05;32.20;;;5.50;99.90;;;;;;5050231;28;20108;-80
2022/11/30 05:14:08;;;;;;;66.05;31.80;;;5.50;99.90;;;;;;5032943;28;20081;-81
2022/11/30 05:16:54;;;;;;;55.53;28.42;;;5.40;99.90;;;;;;5032569;28;20489;-80
2022/11/30 05:19:40;;;;;;;71.10;33.38;;;5.40;99.90;;;;;;5050931;28;20059;-80
2022/11/30 05:22:26;;;;;;;73.38;32.50;;;5.40;99.90;;;;;;5051947;28;20143;-80
2022/11/30 05:25:12;;;;;;;69.78;31.33;;;5.40;99.90;;;;;;5032421;28;20049;-80
2022/11/30 05:27:58;;;;;;;66.82;33.80;;;5.50;99.90;;;;;;5019386;28;20053;-80
2022/11/30 05:30:45;;;;;;;53.95;27.88;;;5.50;99.90;;;;;;5049243;28;20045;-80
2022/11/30 05:33:32;;;;;;;69.70;33.85;;;5.50;99.90;;;;;;5050334;28;20053;-80
2022/11/30 05:36:19;;;;;;;79.82;35.08;;;5.50;99.90;;;;;;5034955;28;20107;-80
2022/11/30 05:39:05;;;;;;;68.80;32.15;;;5.50;99.90;;;;;;5050641;28;20075;-80
2022/11/30 05:41:52;;;;;;;56.10;27.98;;;5.60;99.90;;;;;;5031987;28;20061;-80
2022/11/30 05:44:38;;;;;;;59.88;30.67;;;5.70;99.90;;;;;;5035966;28;20067;-79
2022/11/30 05:47:24;;;;;;;69.47;34.40;;;5.60;99.90;;;;;;5050160;28;20404;-81
2022/11/30 05:50:12;;;;;;;62.90;31.83;;;5.60;99.90;;;;;;5023120;28;20049;-80
2022/11/30 05:52:59;;;;;;;79.82;34.03;;;5.60;99.90;;;;;;5018888;28;20053;-80
2022/11/30 05:55:45;;;;;;;62.17;32.00;;;5.70;99.90;;;;;;5049914;28;20444;-81
2022/11/30 05:58:32;;;;;;;55.05;29.08;;;5.70;99.90;;;;;;5031135;28;20094;-81
2022/11/30 06:01:21;;;;;;;65.13;31.23;;;5.70;99.90;;;;;;5031619;28;20049;-81
2022/11/30 06:04:08;;;;;;;58.90;31.45;;;5.70;99.90;;;;;;5052162;28;20100;-82
2022/11/30 06:06:56;;;;;;;76.47;34.65;;;5.70;99.90;;;;;;5049453;28;20053;-82
2022/11/30 06:09:42;;;;;;;73.68;35.10;;;5.70;99.90;;;;;;5048632;28;20052;-82
2022/11/30 06:12:29;;;;;;;77.38;36.63;;;5.70;99.90;;;;;;5050763;28;20453;-80
2022/11/30 06:15:15;;;;;;;82.00;36.15;;;5.80;99.90;;;;;;5050460;28;20378;-79
2022/11/30 06:18:01;;;;;;;78.88;36.85;;;5.80;99.90;;;;;;5018603;28;20060;-80
2022/11/30 06:20:47;;;;;;;67.68;33.25;;;5.80;99.90;;;;;;5050881;28;20056;-79
2022/11/30 06:23:34;;;;;;;73.88;33.33;;;5.80;99.90;;;;;;5019724;28;20049;-79
2022/11/30 06:26:20;;;;;;;78.15;36.63;;;5.90;99.90;;;;;;5035913;28;20049;-79
2022/11/30 06:29:08;;;;;;;97.22;37.63;;;5.80;99.90;;;;;;5053404;28;20412;-79
2022/11/30 06:31:54;;;;;;;70.63;32.67;;;5.90;99.90;;;;;;5052931;28;20562;-79
2022/11/30 06:34:40;;;;;;;74.68;36.50;;;5.90;99.90;;;;;;5037760;28;20045;-79
2022/11/30 06:37:27;;;;;;;96.88;36.90;;;5.90;99.90;;;;;;5052381;28;20045;-79
2022/11/30 06:40:13;;;;;;;79.30;35.78;;;5.90;99.90;;;;;;5052890;28;20067;-79
2022/11/30 06:42:59;;;;;;;89.57;38.47;;;6.00;99.90;;;;;;5022395;28;20045;-79
2022/11/30 06:45:46;;;;;;;99.00;40.95;;;6.00;99.90;;;;;;5053557;28;20135;-79
2022/11/30 06:48:34;;;;;;;84.38;37.58;;;6.00;99.90;;;;;;5054659;28;20049;-79
2022/11/30 06:51:20;;;;;;;94.28;39.30;;;6.00;99.90;;;;;;5052940;28;20095;-80
2022/11/30 06:54:06;;;;;;;87.57;35.40;;;6.00;99.90;;;;;;5053541;28;20075;-79
2022/11/30 06:56:52;;;;;;;104.05;41.60;;;6.00;99.90;;;;;;5035030;28;20156;-80
2022/11/30 06:59:41;;;;;;;89.53;37.50;;;6.00;99.90;;;;;;5035882;28;20405;-79
2022/11/30 07:02:27;;;;;;;90.93;38.92;;;6.00;99.90;;;;;;5023233;28;20056;-80
2022/11/30 07:05:13;;;;;;;90.60;39.15;;;6.10;99.90;;;;;;5052525;28;20099;-80
2022/11/30 07:07:59;;;;;;;81.25;37.45;;;6.10;99.90;;;;;;5035615;28;20057;-81
2022/11/30 07:10:46;;;;;;;82.43;35.53;;;6.10;99.90;;;;;;5052952;28;20053;-80
2022/11/30 07:13:33;;;;;;;90.38;37.42;;;6.10;99.90;;;;;;5055352;28;20581;-79
2022/11/30 07:16:19;;;;;;;85.28;35.65;;;6.10;99.90;;;;;;5034893;28;20080;-82
2022/11/30 07:19:05;;;;;;;75.03;34.67;;;6.10;99.90;;;;;;5051617;28;20049;-81
2022/11/30 07:21:51;;;;;;;86.25;37.13;;;6.10;99.90;;;;;;5035180;28;20063;-81
2022/11/30 07:27:42;;;;;;;81.60;36.17;;;6.10;99.90;;;;;;5037744;28;20061;-81
2022/11/30 07:30:30;;;;;;;99.82;39.92;;;6.10;99.90;;;;;;5035627;28;20448;-81
2022/11/30 07:33:16;;;;;;;77.68;33.75;;;6.10;99.90;;;;;;5038522;28;20053;-81
2022/11/30 07:36:02;;;;;;;65.85;32.65;;;6.10;99.90;;;;;;5051592;28;20057;-81
2022/11/30 07:38:49;;;;;;;74.85;34.45;;;6.10;99.90;;;;;;5051516;28;20085;-80
2022/11/30 07:41:35;;;;;;;72.03;32.20;;;6.10;99.90;;;;;;5053868;28;20052;-81
2022/11/30 07:44:21;;;;;;;72.40;34.53;;;6.10;99.90;;;;;;5051288;28;20091;-81
2022/11/30 07:47:07;;;;;;;61.05;29.27;;;6.10;99.90;;;;;;5051774;28;20071;-80
2022/11/30 07:49:54;;;;;;;70.00;32.03;;;6.10;99.90;;;;;;5034386;28;20061;-81
2022/11/30 07:52:40;;;;;;;66.45;31.55;;;6.20;99.90;;;;;;5034071;28;20140;-81
2022/11/30 07:55:26;;;;;;;77.63;34.55;;;6.20;99.90;;;;;;5050349;28;20142;-81
2022/11/30 07:58:13;;;;;;;62.85;29.88;;;6.20;99.90;;;;;;5036225;28;20094;-81
2022/11/30 08:01:07;;;;;;;63.42;30.20;;;6.20;99.90;;;;;;5034733;28;20048;-81
2022/11/30 08:03:54;;;;;;;61.27;30.13;;;6.20;99.90;;;;;;5034403;28;20155;-81
2022/11/30 08:06:40;;;;;;;53.13;28.65;;;6.20;99.90;;;;;;5033665;28;20049;-81
2022/11/30 08:09:26;;;;;;;70.47;33.03;;;6.20;99.90;;;;;;5050757;28;20049;-80
2022/11/30 08:12:12;;;;;;;60.88;30.90;;;6.20;99.90;;;;;;5036126;28;20060;-81
2022/11/30 08:14:59;;;;;;;62.75;29.00;;;6.20;99.90;;;;;;5052347;28;20049;-81
2022/11/30 08:17:45;;;;;;;67.70;31.77;;;6.20;99.90;;;;;;5033598;28;20056;-81
2022/11/30 08:20:31;;;;;;;67.78;33.58;;;6.20;99.90;;;;;;5050755;28;20060;-81
2022/11/30 08:23:17;;;;;;;66.07;31.08;;;6.20;99.90;;;;;;5048749;28;20053;-81
2022/11/30 08:26:09;;;;;;;65.97;32.08;;;6.20;99.90;;;;;;5051009;28;20085;-80
2022/11/30 08:28:57;;;;;;;61.85;31.17;;;6.20;99.90;;;;;;5050752;28;20053;-81
2022/11/30 08:31:44;;;;;;;67.95;32.17;;;6.30;99.90;;;;;;5051920;28;20045;-81
2022/11/30 08:34:30;;;;;;;68.47;33.40;;;6.20;99.90;;;;;;5051419;28;20071;-81
2022/11/30 08:37:16;;;;;;;63.00;29.75;;;6.20;99.90;;;;;;5052043;28;20064;-81
2022/11/30 08:40:03;;;;;;;63.53;32.13;;;6.20;99.90;;;;;;5036394;28;20079;-81
2022/11/30 08:42:49;;;;;;;62.10;29.05;;;6.30;99.90;;;;;;5033831;28;20092;-81
2022/11/30 08:45:36;;;;;;;69.97;31.65;;;6.30;99.90;;;;;;5050024;28;20092;-81
2022/11/30 08:48:23;;;;;;;77.75;33.25;;;6.30;99.90;;;;;;5051729;28;20111;-81
2022/11/30 08:51:13;;;;;;;65.15;30.55;;;6.30;99.90;;;;;;5050971;28;20053;-81
2022/11/30 08:53:59;;;;;;;68.18;32.33;;;6.30;99.90;;;;;;5053666;28;20408;-81
2022/11/30 08:56:46;;;;;;;64.97;30.25;;;6.30;99.90;;;;;;5033812;28;20512;-81
2022/11/30 08:59:32;;;;;;;71.07;32.50;;;6.20;99.90;;;;;;5051286;28;20103;-81
2022/11/30 09:02:18;;;;;;;76.30;34.15;;;6.30;99.90;;;;;;5049717;28;20168;-81
2022/11/30 09:05:05;;;;;;;73.57;31.77;;;6.30;99.90;;;;;;5049653;28;20143;-80
2022/11/30 09:07:51;;;;;;;69.70;31.02;;;6.30;99.90;;;;;;5037632;28;20052;-80
2022/11/30 09:10:37;;;;;;;76.47;33.20;;;6.30;99.90;;;;;;5050394;28;20067;-81
2022/11/30 09:13:24;;;;;;;76.15;33.60;;;6.30;99.90;;;;;;5049214;28;20060;-81
2022/11/30 09:16:13;;;;;;;70.28;30.75;;;6.30;99.90;;;;;;5032583;28;20045;-81
2022/11/30 09:19:00;;;;;;;86.00;37.63;;;6.30;99.90;;;;;;5050714;28;20073;-81
2022/11/30 09:21:46;;;;;;;70.55;32.40;;;6.30;99.90;;;;;;5054745;28;20099;-81
2022/11/30 09:24:33;;;;;;;74.30;31.65;;;6.30;99.90;;;;;;5035819;28;20114;-80
2022/11/30 09:27:19;;;;;;;76.65;31.63;;;6.40;99.90;;;;;;5050711;28;20136;-81
2022/11/30 09:30:06;;;;;;;73.57;32.38;;;6.40;99.90;;;;;;5049300;28;20053;-82
2022/11/30 09:32:52;;;;;;;72.28;34.38;;;6.40;99.90;;;;;;5050128;28;20507;-81
2022/11/30 09:35:38;;;;;;;85.15;37.58;;;6.40;99.90;;;;;;5032336;28;20044;-81
2022/11/30 09:38:25;;;;;;;74.57;35.25;;;6.50;99.90;;;;;;5053022;28;20109;-80
2022/11/30 09:41:32;;;;;;;72.25;34.88;;;6.50;99.90;;;;;;5035080;28;20103;-81
2022/11/30 09:44:31;;;;;;;83.38;34.63;;;6.50;99.90;;;;;;5033318;28;20056;-81
2022/11/30 09:47:30;;;;;;;86.80;35.20;;;6.60;99.90;;;;;;5050724;28;20049;-80
2022/11/30 09:50:21;;;;;;;71.20;33.08;;;6.60;99.90;;;;;;5035392;28;20116;-80
2022/11/30 09:53:28;;;;;;;72.90;33.35;;;6.60;99.90;;;;;;5032095;28;20061;-81
2022/11/30 09:56:29;;;;;;;66.88;32.10;;;6.60;99.90;;;;;;5052911;28;20041;-81
2022/11/30 09:59:21;;;;;;;75.85;35.13;;;6.70;99.90;;;;;;5052582;28;20172;-81
2022/11/30 10:02:15;;;;;;;81.28;34.65;;;6.70;99.90;;;;;;5054238;28;20381;-80
2022/11/30 10:05:02;;;;;;;79.45;37.85;;;6.70;99.90;;;;;;5053928;28;20056;-81
2022/11/30 10:08:19;;;;;;;79.43;34.13;;;6.70;99.90;;;;;;5036992;28;20057;-81
2022/11/30 10:11:19;;;;;;;86.35;36.55;;;6.70;99.90;;;;;;5058597;28;20057;-81
2022/11/30 10:14:18;;;;;;;86.95;37.00;;;6.70;99.90;;;;;;5035965;28;20049;-81
2022/11/30 10:17:04;;;;;;;87.32;37.25;;;6.70;99.90;;;;;;5054043;28;20052;-81
2022/11/30 10:20:14;;;;;;;91.25;38.10;;;6.80;99.90;;;;;;5054545;28;20075;-81
2022/11/30 10:23:30;;;;;;;90.25;36.28;;;6.80;99.90;;;;;;5036832;28;20412;-81
2022/11/30 10:26:33;;;;;;;83.72;37.25;;;6.80;99.90;;;;;;5054441;28;20063;-81
2022/11/30 10:29:34;;;;;;;79.97;36.85;;;6.80;99.90;;;;;;5035030;28;20472;-80
2022/11/30 10:32:26;;;;;;;80.72;36.40;;;6.80;99.90;;;;;;5023162;28;20065;-81
2022/11/30 10:35:42;;;;;;;80.10;37.08;;;6.80;99.90;;;;;;5036143;28;20053;-80
2022/11/30 10:38:39;;;;;;;85.20;38.33;;;6.80;99.90;;;;;;5054112;28;20111;-80
2022/11/30 10:41:43;;;;;;;77.28;37.05;;;6.80;99.90;;;;;;5058545;28;20103;-80
2022/11/30 10:44:33;;;;;;;87.47;39.58;;;6.80;99.90;;;;;;5035204;28;20382;-80
2022/11/30 10:47:25;;;;;;;75.88;35.78;;;6.80;99.90;;;;;;5052268;28;20057;-80
2022/11/30 10:50:15;;;;;;;80.57;37.35;;;6.80;99.90;;;;;;5052868;28;20144;-80
2022/11/30 10:53:01;;;;;;;69.78;35.00;;;6.80;99.90;;;;;;5038670;28;20111;-81
2022/11/30 10:56:17;;;;;;;72.82;34.70;;;6.80;99.90;;;;;;5056284;28;20158;-79
2022/11/30 10:59:24;;;;;;;68.45;33.50;;;6.80;99.90;;;;;;5047176;28;20056;-80
2022/11/30 11:02:35;;;;;;;76.13;35.47;;;6.80;99.90;;;;;;5052602;28;20065;-80
2022/11/30 11:05:24;;;;;;;93.05;38.55;;;6.80;99.90;;;;;;5052558;28;20567;-79
2022/11/30 11:08:23;;;;;;;101.28;40.38;;;6.80;99.90;;;;;;5035306;28;20045;-80
2022/11/30 11:11:26;;;;;;;107.75;38.72;;;6.80;99.90;;;;;;5036491;28;20468;-80
2022/11/30 11:14:21;;;;;;;78.55;37.15;;;6.80;99.90;;;;;;5036985;28;20056;-80
2022/11/30 11:17:22;;;;;;;79.55;35.17;;;6.80;99.90;;;;;;5052553;28;20056;-79
2022/11/30 11:20:43;;;;;;;83.22;36.00;;;6.80;99.90;;;;;;5051598;28;20547;-80
2022/11/30 11:23:34;;;;;;;67.57;31.90;;;6.90;99.90;;;;;;4958268;28;20071;-80
2022/11/30 11:26:24;;;;;;;62.53;31.65;;;6.80;99.90;;;;;;5035860;28;20052;-81
2022/11/30 11:29:32;;;;;;;70.70;34.00;;;6.80;99.90;;;;;;5036285;28;20056;-80
2022/11/30 11:32:23;;;;;;;67.57;33.25;;;6.90;99.90;;;;;;5034842;28;20118;-80
2022/11/30 11:35:36;;;;;;;75.05;32.60;;;6.90;99.90;;;;;;5034786;28;20045;-81
2022/11/30 11:38:39;;;;;;;66.03;31.17;;;6.90;99.90;;;;;;5052538;28;20110;-80
2022/11/30 11:41:34;;;;;;;68.90;35.47;;;6.90;99.90;;;;;;5035164;28;20060;-80
2022/11/30 11:44:24;;;;;;;68.65;33.47;;;6.90;99.90;;;;;;5035298;28;20087;-80
2022/11/30 11:47:24;;;;;;;76.35;35.50;;;7.00;99.90;;;;;;5033978;28;20130;-80
2022/11/30 11:50:34;;;;;;;66.03;32.65;;;7.00;99.90;;;;;;5038960;28;20505;-80
2022/11/30 11:53:24;;;;;;;70.90;35.03;;;7.00;99.90;;;;;;5053694;28;20076;-80
2022/11/30 11:56:33;;;;;;;65.75;32.17;;;7.00;99.90;;;;;;5053909;28;20727;-80
2022/11/30 11:59:34;;;;;;;69.63;34.95;;;7.00;99.90;;;;;;5036728;28;20048;-80
2022/11/30 12:02:38;;;;;;;65.97;33.70;;;7.00;99.90;;;;;;5054737;28;20057;-79
2022/11/30 12:05:41;;;;;;;65.63;31.88;;;7.00;99.90;;;;;;5053795;28;20053;-79
2022/11/30 12:08:53;;;;;;;63.97;33.60;;;7.00;99.90;;;;;;5036253;28;20049;-79
2022/11/30 12:11:46;;;;;;;68.72;34.60;;;7.00;99.90;;;;;;5054222;28;20415;-80
2022/11/30 12:14:34;;;;;;;74.60;35.95;;;7.00;99.90;;;;;;5036707;28;20045;-80
2022/11/30 12:17:44;;;;;;;74.97;35.42;;;7.10;99.90;;;;;;5053397;28;20041;-80
2022/11/30 12:20:49;;;;;;;464.40;80.78;;;7.00;99.90;;;;;;5037603;28;20053;-78
2022/11/30 12:23:56;;;;;;;76.72;35.63;;;7.10;99.90;;;;;;5052580;28;20139;-80
2022/11/30 12:26:58;;;;;;;62.97;33.90;;;7.10;99.90;;;;;;5037401;28;20053;-80
2022/11/30 12:30:14;;;;;;;57.00;31.13;;;7.10;99.90;;;;;;5052096;28;20053;-80
2022/11/30 12:33:25;;;;;;;108.65;39.38;;;7.10;99.90;;;;;;5052754;28;20049;-80
2022/11/30 12:36:43;;;;;;;60.95;31.05;;;7.20;99.90;;;;;;5036387;28;20588;-80
2022/11/30 12:39:56;;;;;;;58.75;32.63;;;7.20;99.90;;;;;;5050981;28;20049;-80
2022/11/30 12:42:51;;;;;;;60.13;31.60;;;7.20;99.90;;;;;;5019919;28;20128;-80
2022/11/30 12:45:43;;;;;;;65.13;32.10;;;7.20;99.90;;;;;;5049917;28;20041;-80
2022/11/30 12:48:40;;;;;;;63.90;32.33;;;7.20;99.90;;;;;;5052459;28;20552;-79
2022/11/30 12:51:31;;;;;;;64.00;32.72;;;7.20;99.90;;;;;;5052528;28;20045;-80
2022/11/30 12:54:49;;;;;;;63.17;32.72;;;7.20;99.90;;;;;;5033343;28;20053;-81
2022/11/30 12:57:41;;;;;;;62.58;32.75;;;7.20;99.90;;;;;;5021035;28;20056;-80
2022/11/30 13:00:43;;;;;;;57.33;31.85;;;7.20;99.90;;;;;;5033905;28;20401;-80
2022/11/30 13:03:59;;;;;;;60.67;32.10;;;7.20;99.90;;;;;;5033688;28;20144;-80
2022/11/30 13:06:57;;;;;;;58.15;32.03;;;7.20;99.90;;;;;;5046571;28;20045;-79
2022/11/30 13:09:49;;;;;;;60.92;31.23;;;7.20;99.90;;;;;;5032787;28;20111;-80
2022/11/30 13:12:37;;;;;;;66.38;33.00;;;7.20;99.90;;;;;;5035241;28;20041;-80
2022/11/30 13:15:30;;;;;;;61.08;31.70;;;7.20;99.90;;;;;;5050133;28;20044;-82
2022/11/30 13:18:22;;;;;;;62.58;31.40;;;7.20;99.90;;;;;;5032618;28;20508;-80
2022/11/30 13:21:26;;;;;;;59.15;30.85;;;7.20;99.90;;;;;;5049666;28;20397;-79
2022/11/30 13:24:20;;;;;;;55.78;30.35;;;7.20;99.90;;;;;;5032586;28;20486;-78
2022/11/30 13:27:15;;;;;;;57.72;32.25;;;7.20;99.90;;;;;;5049493;28;20049;-79
2022/11/30 13:30:19;;;;;;;60.25;31.55;;;7.20;99.90;;;;;;5032177;28;20149;-81
2022/11/30 13:33:34;;;;;;;54.65;30.10;;;7.20;99.90;;;;;;5018069;28;20151;-79
2022/11/30 13:36:44;;;;;;;57.70;30.08;;;7.20;99.90;;;;;;5021802;28;20057;-81
2022/11/30 13:39:54;;;;;;;58.30;31.30;;;7.20;99.90;;;;;;5021151;28;20049;-82
2022/11/30 13:42:44;;;;;;;56.42;31.85;;;7.20;99.90;;;;;;5054832;28;20504;-81
2022/11/30 13:45:32;;;;;;;55.72;31.60;;;7.20;99.90;;;;;;5052272;28;20055;-79
2022/11/30 13:48:37;;;;;;;60.47;30.95;;;7.20;99.90;;;;;;5057265;28;20057;-82
2022/11/30 13:51:40;;;;;;;62.40;32.30;;;7.20;99.90;;;;;;5036204;28;20068;-81
2022/11/30 13:54:37;;;;;;;60.15;31.42;;;7.20;99.90;;;;;;5053677;28;20049;-82
2022/11/30 13:57:23;;;;;;;64.60;32.35;;;7.20;99.90;;;;;;5020200;28;20633;-76
2022/11/30 14:01:00;;;;;;;56.50;32.50;;;7.10;99.90;;;;;;5052538;28;20080;-84
2022/11/30 14:04:21;;;;;;;61.60;32.30;;;7.10;99.90;;;;;;5031709;28;20551;-86
2022/11/30 14:07:35;;;;;;;64.53;32.88;;;7.10;99.90;;;;;;5057825;28;20540;-81
2022/11/30 14:10:29;;;;;;;55.40;29.70;;;7.10;99.90;;;;;;5051508;28;20076;-77
2022/11/30 14:13:21;;;;;;;72.90;35.60;;;7.10;99.90;;;;;;5050525;28;20140;-79
2022/11/30 14:16:26;;;;;;;63.25;32.50;;;7.10;99.90;;;;;;5036104;28;20204;-88
2022/11/30 14:19:12;;;;;;;66.38;36.30;;;7.00;99.90;;;;;;5004372;28;20050;-86
2022/11/30 14:21:59;;;;;;;60.00;32.97;;;7.00;99.90;;;;;;5035432;28;20091;-81
2022/11/30 14:24:47;;;;;;;60.45;34.47;;;7.00;99.90;;;;;;5020959;28;20504;-83
2022/11/30 14:27:35;;;;;;;65.22;33.88;;;7.00;99.90;;;;;;5014197;28;20398;-79
2022/11/30 14:30:22;;;;;;;67.82;33.15;;;7.00;99.90;;;;;;5014468;28;20072;-79
2022/11/30 14:33:24;;;;;;;70.78;35.63;;;7.00;99.90;;;;;;5033888;28;20045;-85
2022/11/30 14:36:11;;;;;;;62.97;34.38;;;7.00;99.90;;;;;;5016715;28;20061;-81
2022/11/30 14:38:57;;;;;;;70.03;34.92;;;7.00;99.90;;;;;;5038295;28;20053;-85
2022/11/30 14:41:43;;;;;;;70.13;35.85;;;6.90;99.90;;;;;;5001297;28;20481;-78
2022/11/30 14:44:39;;;;;;;65.05;34.72;;;6.90;99.90;;;;;;5031796;28;20819;-79